createdAt,value
2018-10-21T00:00:16.602Z,97.9
2018-10-21T00:01:16.645Z,98.0
2018-10-21T00:02:17.099Z,97.9
2018-10-21T00:03:16.689Z,98.0
2018-10-21T00:04:17.058Z,98.0
2018-10-21T00:05:16.375Z,98.1
2018-10-21T00:06:16.676Z,98.2
2018-10-21T00:07:16.981Z,98.2
2018-10-21T00:08:17.317Z,98.1
2018-10-21T00:09:16.755Z,98.1
2018-10-21T00:10:17.588Z,98.2
2018-10-21T00:11:17.201Z,98.1
2018-10-21T00:12:16.514Z,98.1
2018-10-21T00:13:16.818Z,98.2
2018-10-21T00:14:17.121Z,98.3
2018-10-21T00:15:16.745Z,98.4
2018-10-21T00:16:17.303Z,98.6
2018-10-21T00:17:16.618Z,98.7
2018-10-21T00:18:16.921Z,98.6
2018-10-21T00:19:17.217Z,98.6
2018-10-21T00:20:16.561Z,98.5
2018-10-21T00:21:16.878Z,98.6
2018-10-21T00:22:17.302Z,98.6
2018-10-21T00:23:16.620Z,98.5
2018-10-21T00:24:16.915Z,98.6
2018-10-21T00:25:17.215Z,98.7
2018-10-21T00:26:16.524Z,98.7
2018-10-21T00:27:17.081Z,98.6
2018-10-21T00:28:16.459Z,97.9
2018-10-21T00:29:16.749Z,97.7
2018-10-21T00:30:17.070Z,97.7
2018-10-21T00:31:17.116Z,97.8
2018-10-21T00:32:16.427Z,97.8
2018-10-21T00:33:16.882Z,98.0
2018-10-21T00:34:17.292Z,97.9
2018-10-21T00:35:16.604Z,97.8
2018-10-21T00:36:16.899Z,98.0
2018-10-21T00:37:17.212Z,97.9
2018-10-21T00:38:16.502Z,97.8
2018-10-21T00:39:17.049Z,97.8
2018-10-21T00:40:16.448Z,97.6
2018-10-21T00:41:16.514Z,97.5
2018-10-21T00:42:16.828Z,97.5
2018-10-21T00:43:17.130Z,97.6
2018-10-21T00:44:16.434Z,97.6
2018-10-21T00:45:17.095Z,97.7
2018-10-21T00:46:16.495Z,97.7
2018-10-21T00:47:16.809Z,97.8
2018-10-21T00:48:17.116Z,97.6
2018-10-21T00:49:16.416Z,97.7
2018-10-21T00:50:16.730Z,97.8
2018-10-21T00:51:17.069Z,97.9
2018-10-21T00:52:16.445Z,97.8
2018-10-21T00:53:16.757Z,97.9
2018-10-21T00:54:17.064Z,97.5
2018-10-21T00:55:16.369Z,97.6
2018-10-21T00:56:16.655Z,97.6
2018-10-21T00:57:17.243Z,97.6
2018-10-21T00:58:16.559Z,97.6
2018-10-21T00:59:16.875Z,97.6
2018-10-21T01:00:17.158Z,97.6
2018-10-21T01:01:17.569Z,97.8
2018-10-21T01:02:16.852Z,97.9
2018-10-21T01:03:17.431Z,98.0
2018-10-21T01:04:17.032Z,98.1
2018-10-21T01:05:16.389Z,98.1
2018-10-21T01:06:16.703Z,98.1
2018-10-21T01:07:16.983Z,98.1
2018-10-21T01:08:17.306Z,97.9
2018-10-21T01:09:16.823Z,97.9
2018-10-21T01:10:17.199Z,97.8
2018-10-21T01:11:17.218Z,97.5
2018-10-21T01:12:16.536Z,97.5
2018-10-21T01:13:16.851Z,97.4
2018-10-21T01:14:17.161Z,97.3
2018-10-21T01:15:16.845Z,97.0
2018-10-21T01:16:17.169Z,97.0
2018-10-21T01:17:16.486Z,97.1
2018-10-21T01:18:16.795Z,97.1
2018-10-21T01:19:17.099Z,97.0
2018-10-21T01:20:16.442Z,97.0
2018-10-21T01:21:16.749Z,97.0
2018-10-21T01:22:17.150Z,97.0
2018-10-21T01:23:16.436Z,96.9
2018-10-21T01:24:16.752Z,96.5
2018-10-21T01:25:17.064Z,96.4
2018-10-21T01:26:16.331Z,96.2
2018-10-21T01:27:16.774Z,96.2
2018-10-21T01:28:17.168Z,96.1
2018-10-21T01:29:16.475Z,96.0
2018-10-21T01:30:16.797Z,96.1
2018-10-21T01:31:16.835Z,96.0
2018-10-21T01:32:17.176Z,96.1
2018-10-21T01:33:16.715Z,96.4
2018-10-21T01:34:17.083Z,96.4
2018-10-21T01:35:16.464Z,96.4
2018-10-21T01:36:17.114Z,96.2
2018-10-21T01:37:16.693Z,96.1
2018-10-21T01:38:17.581Z,96.0
2018-10-21T01:39:17.088Z,95.9
2018-10-21T01:40:16.462Z,95.7
2018-10-21T01:41:16.538Z,95.7
2018-10-21T01:42:16.809Z,95.9
2018-10-21T01:43:17.129Z,95.9
2018-10-21T01:44:16.437Z,95.7
2018-10-21T01:45:17.044Z,95.3
2018-10-21T01:46:16.413Z,95.3
2018-10-21T01:47:16.728Z,95.5
2018-10-21T01:48:16.984Z,95.5
2018-10-21T01:49:16.297Z,95.5
2018-10-21T01:50:16.634Z,95.5
2018-10-21T01:51:16.863Z,95.1
2018-10-21T01:52:17.251Z,95.2
2018-10-21T01:53:16.555Z,95.2
2018-10-21T01:54:16.863Z,94.9
2018-10-21T01:55:17.190Z,94.8
2018-10-21T01:56:16.491Z,94.6
2018-10-21T01:57:17.050Z,94.9
2018-10-21T01:58:16.492Z,94.9
2018-10-21T01:59:16.776Z,95.0
2018-10-21T02:00:17.059Z,95.2
2018-10-21T02:01:17.156Z,95.1
2018-10-21T02:02:16.423Z,95.2
2018-10-21T02:03:17.059Z,95.3
2018-10-21T02:04:16.403Z,95.6
2018-10-21T02:05:16.711Z,95.6
2018-10-21T02:06:16.997Z,95.4
2018-10-21T02:07:16.340Z,95.4
2018-10-21T02:08:16.675Z,95.3
2018-10-21T02:09:17.269Z,95.4
2018-10-21T02:10:16.691Z,95.7
2018-10-21T02:11:16.753Z,95.4
2018-10-21T02:12:17.062Z,95.4
2018-10-21T02:13:16.365Z,95.4
2018-10-21T02:14:17.033Z,95.3
2018-10-21T02:15:16.668Z,95.2
2018-10-21T02:16:17.051Z,95.3
2018-10-21T02:17:16.348Z,95.3
2018-10-21T02:18:16.654Z,95.3
2018-10-21T02:19:16.937Z,95.4
2018-10-21T02:20:17.246Z,95.5
2018-10-21T02:21:16.463Z,95.6
2018-10-21T02:22:16.844Z,95.6
2018-10-21T02:23:17.138Z,95.5
2018-10-21T02:24:16.456Z,95.2
2018-10-21T02:25:16.763Z,95.1
2018-10-21T02:26:17.094Z,95.0
2018-10-21T02:27:16.694Z,95.1
2018-10-21T02:28:17.059Z,95.0
2018-10-21T02:29:16.392Z,95.1
2018-10-21T02:30:16.756Z,95.2
2018-10-21T02:31:16.803Z,95.0
2018-10-21T02:32:17.112Z,95.3
2018-10-21T02:33:16.581Z,95.0
2018-10-21T02:34:16.967Z,95.0
2018-10-21T02:35:17.278Z,95.0
2018-10-21T02:36:16.582Z,95.0
2018-10-21T02:37:16.901Z,95.0
2018-10-21T02:38:17.210Z,94.9
2018-10-21T02:39:16.595Z,94.7
2018-10-21T02:40:16.887Z,94.7
2018-10-21T02:41:16.984Z,94.9
2018-10-21T02:42:17.311Z,95.2
2018-10-21T02:43:16.617Z,94.8
2018-10-21T02:44:16.906Z,94.5
2018-10-21T02:45:17.431Z,94.6
2018-10-21T02:46:16.830Z,94.5
2018-10-21T02:47:17.149Z,94.5
2018-10-21T02:48:16.466Z,94.2
2018-10-21T02:49:17.093Z,94.3
2018-10-21T02:50:16.436Z,93.9
2018-10-21T02:51:16.785Z,94.0
2018-10-21T02:52:17.120Z,94.0
2018-10-21T02:53:16.400Z,94.1
2018-10-21T02:54:16.715Z,94.1
2018-10-21T02:55:17.035Z,94.3
2018-10-21T02:56:16.341Z,94.2
2018-10-21T02:57:17.099Z,94.2
2018-10-21T02:58:16.568Z,94.3
2018-10-21T02:59:16.874Z,94.3
2018-10-21T03:00:17.184Z,94.2
2018-10-21T03:01:17.202Z,94.2
2018-10-21T03:02:16.524Z,94.2
2018-10-21T03:03:17.075Z,94.0
2018-10-21T03:04:16.521Z,94.0
2018-10-21T03:05:16.852Z,94.2
2018-10-21T03:06:17.143Z,94.2
2018-10-21T03:07:16.448Z,94.3
2018-10-21T03:08:16.774Z,94.3
2018-10-21T03:09:17.385Z,94.5
2018-10-21T03:10:16.959Z,94.3
2018-10-21T03:11:16.988Z,94.3
2018-10-21T03:12:16.318Z,94.2
2018-10-21T03:13:16.628Z,94.2
2018-10-21T03:14:16.967Z,94.1
2018-10-21T03:15:17.576Z,94.2
2018-10-21T03:16:16.936Z,94.3
2018-10-21T03:17:17.281Z,94.4
2018-10-21T03:18:16.674Z,94.6
2018-10-21T03:19:17.034Z,94.6
2018-10-21T03:20:16.369Z,94.6
2018-10-21T03:21:16.646Z,94.6
2018-10-21T03:22:17.004Z,94.6
2018-10-21T03:23:16.307Z,94.6
2018-10-21T03:24:16.601Z,94.6
2018-10-21T03:25:16.917Z,94.6
2018-10-21T03:26:17.238Z,94.6
2018-10-21T03:27:16.744Z,94.7
2018-10-21T03:28:17.149Z,94.8
2018-10-21T03:29:16.444Z,94.8
2018-10-21T03:30:16.781Z,94.7
2018-10-21T03:31:16.909Z,94.6
2018-10-21T03:32:17.243Z,94.7
2018-10-21T03:33:17.133Z,94.8
2018-10-21T03:34:16.542Z,94.9
2018-10-21T03:35:16.856Z,95.0
2018-10-21T03:36:17.168Z,95.1
2018-10-21T03:37:16.475Z,94.9
2018-10-21T03:38:16.786Z,95.3
2018-10-21T03:39:17.101Z,95.4
2018-10-21T03:40:16.591Z,95.6
2018-10-21T03:41:16.449Z,95.6
2018-10-21T03:42:16.762Z,95.4
2018-10-21T03:43:17.074Z,95.3
2018-10-21T03:44:16.374Z,95.3
2018-10-21T03:45:16.693Z,95.0
2018-10-21T03:46:17.311Z,95.0
2018-10-21T03:47:16.642Z,94.9
2018-10-21T03:48:16.946Z,94.9
2018-10-21T03:49:17.284Z,94.9
2018-10-21T03:50:16.601Z,94.8
2018-10-21T03:51:16.652Z,94.9
2018-10-21T03:52:17.105Z,94.8
2018-10-21T03:53:16.500Z,94.8
2018-10-21T03:54:16.823Z,94.9
2018-10-21T03:55:17.160Z,94.6
2018-10-21T03:56:16.473Z,94.5
2018-10-21T03:57:16.792Z,94.6
2018-10-21T03:58:17.109Z,94.5
2018-10-21T03:59:16.406Z,94.6
2018-10-21T04:00:16.732Z,94.7
2018-10-21T04:01:16.775Z,94.7
2018-10-21T04:02:17.092Z,94.8
2018-10-21T04:03:16.395Z,95.0
2018-10-21T04:04:16.837Z,95.2
2018-10-21T04:05:17.189Z,95.4
2018-10-21T04:06:16.491Z,95.7
2018-10-21T04:07:16.798Z,95.6
2018-10-21T04:08:17.079Z,95.7
2018-10-21T04:09:16.367Z,96.0
2018-10-21T04:10:16.849Z,96.1
2018-10-21T04:11:16.700Z,96.0
2018-10-21T04:12:16.969Z,96.0
2018-10-21T04:13:17.256Z,96.1
2018-10-21T04:14:16.549Z,96.2
2018-10-21T04:15:16.865Z,96.5
2018-10-21T04:16:17.623Z,96.8
2018-10-21T04:17:17.010Z,96.9
2018-10-21T04:18:16.323Z,96.7
2018-10-21T04:19:16.632Z,96.7
2018-10-21T04:20:16.912Z,96.9
2018-10-21T04:21:16.983Z,96.8
2018-10-21T04:22:17.499Z,96.8
2018-10-21T04:23:16.911Z,96.7
2018-10-21T04:24:17.559Z,96.7
2018-10-21T04:25:16.888Z,96.8
2018-10-21T04:26:17.184Z,96.8
2018-10-21T04:27:16.474Z,96.8
2018-10-21T04:28:16.952Z,97.4
2018-10-21T04:29:16.346Z,97.5
2018-10-21T04:30:16.658Z,97.3
2018-10-21T04:31:16.698Z,97.1
2018-10-21T04:32:17.005Z,97.2
2018-10-21T04:33:16.289Z,97.4
2018-10-21T04:34:16.882Z,97.4
2018-10-21T04:35:17.317Z,97.7
2018-10-21T04:36:16.639Z,98.1
2018-10-21T04:37:16.941Z,98.3
2018-10-21T04:38:17.252Z,98.2
2018-10-21T04:39:16.553Z,98.5
2018-10-21T04:40:17.197Z,98.5
2018-10-21T04:41:16.909Z,99.0
2018-10-21T04:42:17.224Z,99.1
2018-10-21T04:43:16.517Z,99.0
2018-10-21T04:44:16.831Z,99.0
2018-10-21T04:45:17.111Z,99.1
2018-10-21T04:46:16.660Z,99.1
2018-10-21T04:47:16.980Z,99.1
2018-10-21T04:48:17.274Z,98.5
2018-10-21T04:49:16.583Z,98.2
2018-10-21T04:50:16.911Z,98.3
2018-10-21T04:51:16.935Z,98.5
2018-10-21T04:52:17.456Z,98.3
2018-10-21T04:53:16.847Z,98.0
2018-10-21T04:54:17.165Z,98.1
2018-10-21T04:55:16.474Z,98.7
2018-10-21T04:56:16.765Z,99.0
2018-10-21T04:57:17.066Z,99.1
2018-10-21T04:58:16.580Z,99.1
2018-10-21T04:59:16.941Z,99.1
2018-10-21T05:00:17.242Z,99.1
2018-10-21T05:01:16.308Z,99.2
2018-10-21T05:02:16.614Z,99.3
2018-10-21T05:03:16.940Z,99.5
2018-10-21T05:04:17.694Z,99.5
2018-10-21T05:05:17.062Z,99.3
2018-10-21T05:06:16.365Z,99.2
2018-10-21T05:07:16.684Z,98.9
2018-10-21T05:08:17.020Z,98.6
2018-10-21T05:09:16.346Z,98.8
2018-10-21T05:10:16.894Z,98.8
2018-10-21T05:11:16.687Z,98.8
2018-10-21T05:12:16.949Z,98.8
2018-10-21T05:13:17.276Z,99.3
2018-10-21T05:14:16.557Z,99.6
2018-10-21T05:15:17.157Z,99.5
2018-10-21T05:16:16.881Z,99.1
2018-10-21T05:17:17.237Z,99.3
2018-10-21T05:18:16.551Z,99.1
2018-10-21T05:19:16.831Z,99.0
2018-10-21T05:20:17.175Z,98.8
2018-10-21T05:21:17.229Z,98.8
2018-10-21T05:22:16.854Z,98.8
2018-10-21T05:23:17.178Z,98.9
2018-10-21T05:24:16.487Z,98.9
2018-10-21T05:25:16.810Z,99.2
2018-10-21T05:26:17.112Z,99.2
2018-10-21T05:27:16.421Z,99.2
2018-10-21T05:28:16.887Z,99.4
2018-10-21T05:29:17.296Z,99.3
2018-10-21T05:30:16.600Z,99.4
2018-10-21T05:31:16.651Z,99.4
2018-10-21T05:32:16.936Z,99.4
2018-10-21T05:33:17.228Z,99.5
2018-10-21T05:34:16.788Z,99.4
2018-10-21T05:35:17.219Z,99.5
2018-10-21T05:36:16.561Z,99.6
2018-10-21T05:37:16.876Z,99.6
2018-10-21T05:38:17.188Z,99.7
2018-10-21T05:39:16.490Z,99.7
2018-10-21T05:40:17.117Z,99.8
2018-10-21T05:41:16.847Z,99.8
2018-10-21T05:42:17.159Z,99.8
2018-10-21T05:43:16.450Z,99.8
2018-10-21T05:44:16.766Z,99.9
2018-10-21T05:45:17.074Z,99.9
2018-10-21T05:46:16.597Z,99.9
2018-10-21T05:47:17.117Z,99.9
2018-10-21T05:48:16.469Z,99.9
2018-10-21T05:49:16.744Z,100.0
2018-10-21T05:50:17.079Z,100.0
2018-10-21T05:51:17.084Z,100.0
2018-10-21T05:52:16.481Z,99.8
2018-10-21T05:53:16.860Z,99.7
2018-10-21T05:54:17.158Z,99.7
2018-10-21T05:55:16.466Z,99.8
2018-10-21T05:56:16.779Z,99.8
2018-10-21T05:57:17.086Z,99.5
2018-10-21T05:58:16.475Z,99.4
2018-10-21T05:59:16.829Z,99.4
2018-10-21T06:00:17.112Z,99.2
2018-10-21T06:01:17.187Z,99.3
2018-10-21T06:02:16.465Z,99.2
2018-10-21T06:03:16.770Z,99.2
2018-10-21T06:04:17.280Z,99.0
2018-10-21T06:05:16.656Z,99.0
2018-10-21T06:06:16.951Z,99.1
2018-10-21T06:07:17.273Z,99.1
2018-10-21T06:08:16.575Z,99.2
2018-10-21T06:09:16.896Z,99.1
2018-10-21T06:10:17.565Z,99.1
2018-10-21T06:11:17.250Z,99.0
2018-10-21T06:12:16.556Z,99.0
2018-10-21T06:13:16.865Z,99.0
2018-10-21T06:14:17.176Z,98.9
2018-10-21T06:15:16.470Z,98.9
2018-10-21T06:16:16.950Z,99.0
2018-10-21T06:17:16.330Z,98.9
2018-10-21T06:18:16.640Z,98.8
2018-10-21T06:19:16.933Z,98.7
2018-10-21T06:20:17.232Z,98.6
2018-10-21T06:21:16.337Z,98.4
2018-10-21T06:22:16.832Z,98.3
2018-10-21T06:23:17.174Z,98.2
2018-10-21T06:24:16.486Z,98.0
2018-10-21T06:25:16.774Z,98.0
2018-10-21T06:26:17.079Z,98.0
2018-10-21T06:27:16.363Z,97.9
2018-10-21T06:28:16.668Z,98.0
2018-10-21T06:29:16.988Z,98.1
2018-10-21T06:30:17.300Z,98.1
2018-10-21T06:31:16.393Z,98.1
2018-10-21T06:32:16.720Z,98.0
2018-10-21T06:33:17.300Z,98.1
2018-10-21T06:34:16.650Z,98.1
2018-10-21T06:35:16.974Z,98.1
2018-10-21T06:36:17.273Z,98.1
2018-10-21T06:37:16.594Z,98.1
2018-10-21T06:38:16.901Z,98.2
2018-10-21T06:39:17.503Z,98.3
2018-10-21T06:40:16.918Z,98.3
2018-10-21T06:41:16.933Z,98.2
2018-10-21T06:42:17.241Z,98.2
2018-10-21T06:43:16.546Z,98.2
2018-10-21T06:44:16.852Z,98.3
2018-10-21T06:45:17.680Z,98.3
2018-10-21T06:46:17.026Z,98.3
2018-10-21T06:47:16.381Z,98.2
2018-10-21T06:48:16.782Z,98.1
2018-10-21T06:49:17.101Z,98.0
2018-10-21T06:50:16.413Z,98.0
2018-10-21T06:51:16.689Z,98.1
2018-10-21T06:52:17.046Z,98.2
2018-10-21T06:53:16.327Z,98.1
2018-10-21T06:54:16.648Z,98.1
2018-10-21T06:55:16.959Z,98.1
2018-10-21T06:56:17.348Z,98.0
2018-10-21T06:57:17.055Z,98.0
2018-10-21T06:58:16.455Z,98.0
2018-10-21T06:59:16.798Z,97.9
2018-10-21T07:00:17.122Z,97.6
2018-10-21T07:01:17.140Z,97.5
2018-10-21T07:02:16.466Z,97.6
2018-10-21T07:03:16.781Z,97.6
2018-10-21T07:04:17.328Z,97.6
2018-10-21T07:05:16.717Z,97.6
2018-10-21T07:06:16.995Z,97.4
2018-10-21T07:07:16.303Z,97.3
2018-10-21T07:08:16.608Z,97.3
2018-10-21T07:09:16.914Z,97.2
2018-10-21T07:10:17.494Z,96.9
2018-10-21T07:11:17.238Z,97.0
2018-10-21T07:12:16.553Z,96.9
2018-10-21T07:13:16.868Z,96.9
2018-10-21T07:14:17.191Z,96.9
2018-10-21T07:15:16.716Z,96.8
2018-10-21T07:16:17.150Z,97.0
2018-10-21T07:17:16.536Z,96.8
2018-10-21T07:18:16.857Z,96.9
2018-10-21T07:19:17.128Z,97.0
2018-10-21T07:20:16.432Z,97.1
2018-10-21T07:21:16.508Z,97.1
2018-10-21T07:22:17.099Z,96.6
2018-10-21T07:23:16.435Z,96.6
2018-10-21T07:24:16.747Z,96.5
2018-10-21T07:25:17.099Z,96.6
2018-10-21T07:26:16.493Z,96.8
2018-10-21T07:27:16.795Z,96.7
2018-10-21T07:28:17.465Z,96.7
2018-10-21T07:29:16.932Z,96.7
2018-10-21T07:30:17.272Z,97.0
2018-10-21T07:31:16.297Z,96.9
2018-10-21T07:32:16.615Z,97.0
2018-10-21T07:33:16.909Z,96.9
2018-10-21T07:34:17.518Z,96.5
2018-10-21T07:35:16.927Z,96.5
2018-10-21T07:36:17.398Z,96.6
2018-10-21T07:37:16.772Z,96.7
2018-10-21T07:38:17.067Z,96.7
2018-10-21T07:39:16.374Z,96.7
2018-10-21T07:40:17.110Z,96.6
2018-10-21T07:41:16.733Z,96.7
2018-10-21T07:42:17.041Z,96.7
2018-10-21T07:43:16.341Z,96.4
2018-10-21T07:44:16.645Z,96.3
2018-10-21T07:45:16.957Z,96.4
2018-10-21T07:46:17.576Z,96.2
2018-10-21T07:47:16.985Z,96.0
2018-10-21T07:48:17.296Z,96.0
2018-10-21T07:49:16.935Z,95.7
2018-10-21T07:50:17.262Z,95.7
2018-10-21T07:51:16.340Z,95.5
2018-10-21T07:52:16.787Z,95.7
2018-10-21T07:53:17.179Z,95.8
2018-10-21T07:54:16.470Z,95.8
2018-10-21T07:55:17.002Z,95.6
2018-10-21T07:56:16.374Z,95.3
2018-10-21T07:57:16.720Z,95.2
2018-10-21T07:58:17.241Z,95.2
2018-10-21T07:59:16.579Z,95.2
2018-10-21T08:00:16.879Z,94.6
2018-10-21T08:01:17.053Z,93.7
2018-10-21T08:02:16.352Z,93.4
2018-10-21T08:03:16.656Z,92.4
2018-10-21T08:04:17.309Z,91.9
2018-10-21T08:05:16.661Z,91.5
2018-10-21T08:06:16.981Z,91.1
2018-10-21T08:07:17.285Z,90.5
2018-10-21T08:08:16.572Z,90.3
2018-10-21T08:09:16.891Z,90.7
2018-10-21T08:10:17.409Z,90.2
2018-10-21T08:11:17.273Z,90.1
2018-10-21T08:12:16.571Z,90.2
2018-10-21T08:13:16.877Z,90.3
2018-10-21T08:14:17.476Z,90.9
2018-10-21T08:15:17.054Z,91.1
2018-10-21T08:16:16.693Z,90.8
2018-10-21T08:17:17.067Z,90.6
2018-10-21T08:18:16.361Z,90.6
2018-10-21T08:19:16.662Z,91.2
2018-10-21T08:20:16.998Z,91.1
2018-10-21T08:21:17.229Z,90.2
2018-10-21T08:22:16.898Z,90.0
2018-10-21T08:23:17.295Z,90.4
2018-10-21T08:24:16.638Z,90.6
2018-10-21T08:25:16.945Z,90.4
2018-10-21T08:26:17.231Z,90.6
2018-10-21T08:27:16.617Z,90.0
2018-10-21T08:28:17.246Z,89.8
2018-10-21T08:29:16.578Z,90.0
2018-10-21T08:30:16.908Z,90.0
2018-10-21T08:31:16.946Z,89.6
2018-10-21T08:32:17.252Z,89.4
2018-10-21T08:33:16.558Z,90.1
2018-10-21T08:34:17.131Z,90.3
2018-10-21T08:35:16.553Z,90.2
2018-10-21T08:36:16.860Z,90.1
2018-10-21T08:37:17.174Z,89.8
2018-10-21T08:38:16.489Z,88.9
2018-10-21T08:39:16.801Z,88.1
2018-10-21T08:40:17.212Z,88.7
2018-10-21T08:41:17.164Z,88.7
2018-10-21T08:42:16.480Z,88.5
2018-10-21T08:43:16.803Z,88.9
2018-10-21T08:44:17.136Z,87.9
2018-10-21T08:45:16.424Z,87.4
2018-10-21T08:46:17.011Z,87.2
2018-10-21T08:47:16.356Z,87.3
2018-10-21T08:48:16.652Z,87.0
2018-10-21T08:49:17.255Z,87.2
2018-10-21T08:50:16.672Z,86.9
2018-10-21T08:51:16.711Z,86.9
2018-10-21T08:52:17.346Z,85.1
2018-10-21T08:53:16.724Z,84.7
2018-10-21T08:54:17.034Z,84.7
2018-10-21T08:55:16.576Z,84.8
2018-10-21T08:56:16.950Z,85.1
2018-10-21T08:57:17.269Z,85.2
2018-10-21T08:58:16.800Z,85.1
2018-10-21T08:59:17.176Z,85.3
2018-10-21T09:00:16.534Z,84.6
2018-10-21T09:01:16.764Z,84.5
2018-10-21T09:02:17.171Z,84.9
2018-10-21T09:03:16.521Z,84.4
2018-10-21T09:04:17.029Z,84.1
2018-10-21T09:05:16.384Z,84.0
2018-10-21T09:06:16.721Z,84.0
2018-10-21T09:07:17.249Z,83.4
2018-10-21T09:08:16.702Z,82.4
2018-10-21T09:09:17.013Z,81.4
2018-10-21T09:10:16.721Z,80.2
2018-10-21T09:11:16.405Z,80.4
2018-10-21T09:12:16.708Z,80.9
2018-10-21T09:13:17.194Z,81.1
2018-10-21T09:14:16.525Z,81.4
2018-10-21T09:15:17.162Z,81.3
2018-10-21T09:16:16.775Z,81.4
2018-10-21T09:17:17.141Z,81.1
2018-10-21T09:18:16.459Z,80.1
2018-10-21T09:19:16.971Z,80.0
2018-10-21T09:20:16.345Z,80.1
2018-10-21T09:21:16.391Z,79.4
2018-10-21T09:22:16.930Z,79.4
2018-10-21T09:23:16.381Z,80.4
2018-10-21T09:24:16.683Z,80.2
2018-10-21T09:25:17.257Z,80.1
2018-10-21T09:26:16.570Z,80.0
2018-10-21T09:27:16.893Z,79.7
2018-10-21T09:28:17.345Z,80.2
2018-10-21T09:29:16.677Z,78.7
2018-10-21T09:30:17.022Z,79.0
2018-10-21T09:31:17.302Z,80.0
2018-10-21T09:32:16.661Z,79.5
2018-10-21T09:33:17.137Z,78.6
2018-10-21T09:34:16.617Z,79.2
2018-10-21T09:35:17.009Z,78.1
2018-10-21T09:36:16.335Z,78.8
2018-10-21T09:37:16.718Z,78.8
2018-10-21T09:38:17.096Z,78.6
2018-10-21T09:39:16.419Z,77.5
2018-10-21T09:40:16.931Z,77.2
2018-10-21T09:41:16.773Z,77.1
2018-10-21T09:42:17.216Z,77.5
2018-10-21T09:43:16.697Z,76.7
2018-10-21T09:44:17.087Z,77.8
2018-10-21T09:45:16.414Z,78.3
2018-10-21T09:46:16.909Z,78.8
2018-10-21T09:47:17.259Z,78.8
2018-10-21T09:48:16.565Z,77.2
2018-10-21T09:49:17.128Z,76.8
2018-10-21T09:50:16.479Z,76.6
2018-10-21T09:51:16.535Z,76.2
2018-10-21T09:52:17.047Z,75.4
2018-10-21T09:53:16.452Z,75.4
2018-10-21T09:54:16.758Z,75.4
2018-10-21T09:55:17.163Z,75.7
2018-10-21T09:56:16.540Z,75.7
2018-10-21T09:57:16.853Z,75.9
2018-10-21T09:58:17.412Z,75.7
2018-10-21T09:59:16.814Z,75.3
2018-10-21T10:00:17.186Z,74.9
2018-10-21T10:01:17.274Z,75.0
2018-10-21T10:02:16.650Z,74.7
2018-10-21T10:03:16.992Z,73.2
2018-10-21T10:04:16.500Z,74.0
2018-10-21T10:05:17.094Z,74.8
2018-10-21T10:06:16.495Z,74.6
2018-10-21T10:07:17.072Z,73.0
2018-10-21T10:08:16.437Z,73.1
2018-10-21T10:09:16.746Z,72.6
2018-10-21T10:10:17.171Z,72.7
2018-10-21T10:11:17.175Z,72.7
2018-10-21T10:12:16.458Z,72.8
2018-10-21T10:13:16.992Z,73.9
2018-10-21T10:14:16.316Z,73.9
2018-10-21T10:15:16.634Z,73.8
2018-10-21T10:16:17.078Z,72.3
2018-10-21T10:17:16.453Z,72.3
2018-10-21T10:18:16.764Z,72.3
2018-10-21T10:19:17.417Z,72.1
2018-10-21T10:20:16.732Z,72.5
2018-10-21T10:21:16.821Z,71.8
2018-10-21T10:22:17.305Z,71.1
2018-10-21T10:23:16.761Z,71.0
2018-10-21T10:24:17.105Z,70.4
2018-10-21T10:25:16.594Z,71.5
2018-10-21T10:26:16.910Z,71.9
2018-10-21T10:27:17.224Z,71.8
2018-10-21T10:28:16.721Z,70.1
2018-10-21T10:29:17.123Z,71.0
2018-10-21T10:30:16.435Z,71.1
2018-10-21T10:31:16.714Z,70.9
2018-10-21T10:32:17.072Z,69.8
2018-10-21T10:33:16.393Z,70.1
2018-10-21T10:34:16.925Z,71.1
2018-10-21T10:35:16.347Z,71.0
2018-10-21T10:36:16.927Z,70.6
2018-10-21T10:37:17.343Z,69.7
2018-10-21T10:38:16.649Z,69.8
2018-10-21T10:39:16.926Z,69.9
2018-10-21T10:40:17.428Z,70.1
2018-10-21T10:41:16.349Z,70.1
2018-10-21T10:42:16.820Z,69.2
2018-10-21T10:43:17.455Z,68.6
2018-10-21T10:44:16.793Z,68.2
2018-10-21T10:45:17.137Z,68.1
2018-10-21T10:46:16.578Z,68.3
2018-10-21T10:47:16.900Z,68.3
2018-10-21T10:48:17.204Z,68.4
2018-10-21T10:49:16.830Z,69.1
2018-10-21T10:50:17.278Z,68.7
2018-10-21T10:51:16.335Z,68.2
2018-10-21T10:52:16.815Z,67.2
2018-10-21T10:53:17.187Z,68.5
2018-10-21T10:54:16.481Z,68.9
2018-10-21T10:55:16.986Z,68.4
2018-10-21T10:56:16.378Z,68.4
2018-10-21T10:57:16.692Z,66.8
2018-10-21T10:58:17.186Z,66.1
2018-10-21T10:59:16.494Z,67.2
2018-10-21T11:00:17.084Z,67.8
2018-10-21T11:01:17.004Z,68.0
2018-10-21T11:02:16.429Z,67.4
2018-10-21T11:03:16.722Z,65.7
2018-10-21T11:04:17.251Z,65.5
2018-10-21T11:05:16.619Z,66.0
2018-10-21T11:06:17.106Z,65.9
2018-10-21T11:07:16.732Z,66.4
2018-10-21T11:08:17.115Z,67.8
2018-10-21T11:09:16.418Z,68.1
2018-10-21T11:10:16.962Z,67.0
2018-10-21T11:11:16.789Z,68.1
2018-10-21T11:12:17.118Z,69.1
2018-10-21T11:13:16.687Z,69.1
2018-10-21T11:14:17.104Z,67.0
2018-10-21T11:15:16.505Z,66.3
2018-10-21T11:16:17.118Z,66.7
2018-10-21T11:17:16.508Z,68.1
2018-10-21T11:18:16.795Z,67.5
2018-10-21T11:19:17.349Z,67.3
2018-10-21T11:20:16.762Z,67.1
2018-10-21T11:21:16.785Z,68.0
2018-10-21T11:22:17.346Z,66.7
2018-10-21T11:23:16.660Z,66.1
2018-10-21T11:24:16.989Z,66.3
2018-10-21T11:25:16.521Z,65.5
2018-10-21T11:26:16.883Z,65.9
2018-10-21T11:27:17.176Z,66.4
2018-10-21T11:28:16.780Z,65.9
2018-10-21T11:29:17.212Z,65.2
2018-10-21T11:30:16.546Z,65.5
2018-10-21T11:31:16.904Z,65.6
2018-10-21T11:32:17.247Z,65.1
2018-10-21T11:33:16.566Z,66.1
2018-10-21T11:34:17.069Z,65.6
2018-10-21T11:35:16.436Z,67.0
2018-10-21T11:36:16.738Z,67.1
2018-10-21T11:37:17.475Z,67.8
2018-10-21T11:38:16.820Z,67.5
2018-10-21T11:39:17.136Z,67.2
2018-10-21T11:40:16.774Z,66.3
2018-10-21T11:41:16.526Z,66.0
2018-10-21T11:42:16.798Z,64.8
2018-10-21T11:43:17.379Z,66.0
2018-10-21T11:44:16.778Z,66.3
2018-10-21T11:45:17.504Z,66.9
2018-10-21T11:46:16.975Z,66.1
2018-10-21T11:47:17.289Z,65.9
2018-10-21T11:48:16.584Z,65.8
2018-10-21T11:49:17.091Z,66.4
2018-10-21T11:50:16.419Z,65.7
2018-10-21T11:51:16.459Z,65.7
2018-10-21T11:52:17.029Z,66.1
2018-10-21T11:53:16.341Z,65.5
2018-10-21T11:54:16.627Z,65.0
2018-10-21T11:55:17.172Z,63.3
2018-10-21T11:56:16.611Z,63.1
2018-10-21T11:57:16.920Z,62.6
2018-10-21T11:58:17.448Z,62.6
2018-10-21T11:59:16.862Z,63.4
2018-10-21T12:00:17.218Z,62.3
2018-10-21T12:01:17.491Z,62.2
2018-10-21T12:02:16.828Z,62.3
2018-10-21T12:03:17.135Z,62.1
2018-10-21T12:04:16.789Z,61.0
2018-10-21T12:05:17.128Z,59.5
2018-10-21T12:06:16.454Z,60.4
2018-10-21T12:07:17.002Z,60.7
2018-10-21T12:08:16.402Z,60.5
2018-10-21T12:09:16.717Z,60.2
2018-10-21T12:10:17.563Z,59.0
2018-10-21T12:11:17.060Z,59.6
2018-10-21T12:12:16.374Z,59.8
2018-10-21T12:13:16.917Z,59.8
2018-10-21T12:14:17.293Z,59.2
2018-10-21T12:15:16.611Z,58.8
2018-10-21T12:16:17.097Z,58.8
2018-10-21T12:17:16.455Z,57.9
2018-10-21T12:18:16.745Z,58.1
2018-10-21T12:19:17.269Z,58.6
2018-10-21T12:20:16.636Z,58.0
2018-10-21T12:21:16.718Z,57.1
2018-10-21T12:22:17.391Z,56.9
2018-10-21T12:23:16.865Z,57.6
2018-10-21T12:24:17.204Z,57.9
2018-10-21T12:25:16.782Z,57.3
2018-10-21T12:26:17.166Z,57.4
2018-10-21T12:27:16.513Z,56.7
2018-10-21T12:28:16.954Z,55.8
2018-10-21T12:29:16.613Z,55.8
2018-10-21T12:30:17.003Z,55.7
2018-10-21T12:31:17.250Z,55.5
2018-10-21T12:32:16.601Z,56.8
2018-10-21T12:33:16.950Z,56.3
2018-10-21T12:34:17.543Z,57.6
2018-10-21T12:35:17.238Z,58.0
2018-10-21T12:36:16.579Z,56.9
2018-10-21T12:37:17.195Z,57.1
2018-10-21T12:38:16.532Z,58.1
2018-10-21T12:39:16.831Z,55.3
2018-10-21T12:40:17.364Z,55.0
2018-10-21T12:41:17.434Z,54.2
2018-10-21T12:42:16.752Z,54.5
2018-10-21T12:43:17.358Z,55.4
2018-10-21T12:44:16.799Z,55.0
2018-10-21T12:45:17.192Z,55.0
2018-10-21T12:46:16.724Z,54.9
2018-10-21T12:47:17.369Z,55.2
2018-10-21T12:48:16.689Z,52.9
2018-10-21T12:49:17.174Z,53.6
2018-10-21T12:50:16.517Z,54.0
2018-10-21T12:51:16.577Z,55.1
2018-10-21T12:52:17.074Z,54.1
2018-10-21T12:53:16.601Z,53.8
2018-10-21T12:54:17.392Z,55.8
2018-10-21T12:55:16.886Z,55.9
2018-10-21T12:56:17.302Z,54.3
2018-10-21T12:57:16.594Z,53.7
2018-10-21T12:58:17.183Z,54.2
2018-10-21T12:59:16.543Z,53.0
2018-10-21T13:00:16.856Z,52.6
2018-10-21T13:01:17.158Z,52.0
2018-10-21T13:02:16.776Z,52.4
2018-10-21T13:03:17.069Z,52.2
2018-10-21T13:04:16.688Z,53.4
2018-10-21T13:05:17.117Z,53.4
2018-10-21T13:06:16.422Z,54.6
2018-10-21T13:07:16.849Z,54.8
2018-10-21T13:08:17.228Z,52.0
2018-10-21T13:09:16.537Z,51.1
2018-10-21T13:10:17.105Z,51.1
2018-10-21T13:11:16.875Z,51.4
2018-10-21T13:12:17.185Z,51.9
2018-10-21T13:13:16.601Z,51.8
2018-10-21T13:14:17.328Z,52.3
2018-10-21T13:15:16.642Z,53.0
2018-10-21T13:16:17.166Z,53.5
2018-10-21T13:17:16.507Z,54.0
2018-10-21T13:18:16.820Z,55.9